createdAt,value
2018-02-15T00:00:23.454Z,26.80
2018-02-15T00:02:50.887Z,19.57
2018-02-15T00:05:18.363Z,22.97
2018-02-15T00:07:45.843Z,20.67
2018-02-15T00:10:13.271Z,22.87
2018-02-15T00:12:40.718Z,16.93
2018-02-15T00:15:08.194Z,20.03
2018-02-15T00:17:35.671Z,20.70
2018-02-15T00:20:03.107Z,21.17
2018-02-15T00:22:30.634Z,22.80
2018-02-15T00:24:58.070Z,23.07
2018-02-15T00:27:25.598Z,20.97
2018-02-15T00:29:53.031Z,20.73
2018-02-15T00:32:20.458Z,22.60
2018-02-15T00:34:47.921Z,21.17
2018-02-15T00:37:16.134Z,21.63
2018-02-15T00:39:43.562Z,20.30
2018-02-15T00:42:10.990Z,22.60
2018-02-15T00:44:38.418Z,29.50
2018-02-15T00:47:05.851Z,20.53
2018-02-15T00:49:33.303Z,24.47
2018-02-15T00:52:01.498Z,24.10
2018-02-15T00:54:29.018Z,20.87
2018-02-15T00:56:56.466Z,21.20
2018-02-15T00:59:24.703Z,24.20
2018-02-15T01:01:52.181Z,22.67
2018-02-15T01:04:20.342Z,28.37
2018-02-15T01:06:49.087Z,19.50
2018-02-15T01:09:16.575Z,25.50
2018-02-15T01:11:44.011Z,20.57
2018-02-15T01:14:11.446Z,24.70
2018-02-15T01:16:38.886Z,21.43
2018-02-15T01:19:07.110Z,26.90
2018-02-15T01:21:34.551Z,25.47
2018-02-15T01:24:01.982Z,32.80
2018-02-15T01:26:29.454Z,25.83
2018-02-15T01:28:56.903Z,41.70
2018-02-15T01:31:25.096Z,29.67
2018-02-15T01:33:52.618Z,28.20
2018-02-15T01:36:20.054Z,28.50
2018-02-15T01:38:47.575Z,26.20
2018-02-15T01:41:15.003Z,25.50
2018-02-15T01:43:42.624Z,28.47
2018-02-15T01:46:10.823Z,29.40
2018-02-15T01:48:39.018Z,21.30
2018-02-15T01:51:07.241Z,25.03
2018-02-15T01:53:35.582Z,23.23
2018-02-15T01:56:03.011Z,26.60
2018-02-15T01:58:30.446Z,30.03
2018-02-15T02:00:57.968Z,26.70
2018-02-15T02:03:26.146Z,23.93
2018-02-15T02:05:53.583Z,28.37
2018-02-15T02:08:21.032Z,35.43
2018-02-15T02:10:50.027Z,26.97
2018-02-15T02:13:18.862Z,25.30
2018-02-15T02:15:46.295Z,25.33
2018-02-15T02:18:13.734Z,28.57
2018-02-15T02:20:41.219Z,28.20
2018-02-15T02:23:08.655Z,23.07
2018-02-15T02:25:36.091Z,23.80
2018-02-15T02:28:03.563Z,29.53
2018-02-15T02:30:30.996Z,28.20
2018-02-15T02:32:58.431Z,26.13
2018-02-15T02:35:25.863Z,32.77
2018-02-15T02:37:53.386Z,26.50
2018-02-15T02:40:20.871Z,24.50
2018-02-15T02:42:48.811Z,27.30
2018-02-15T02:45:16.239Z,31.20
2018-02-15T02:47:43.718Z,23.43
2018-02-15T02:50:11.142Z,25.50
2018-02-15T02:52:38.578Z,26.67
2018-02-15T02:55:06.016Z,28.93
2018-02-15T02:57:33.543Z,30.77
2018-02-15T03:00:00.979Z,28.23
2018-02-15T03:02:28.407Z,36.73
2018-02-15T03:04:55.846Z,23.23
2018-02-15T03:07:23.370Z,29.50
2018-02-15T03:09:50.853Z,27.40
2018-02-15T03:12:18.930Z,29.10
2018-02-15T03:14:46.358Z,28.60
2018-02-15T03:17:13.811Z,31.53
2018-02-15T03:19:41.286Z,35.43
2018-02-15T03:22:08.718Z,34.30
2018-02-15T03:24:36.146Z,33.53
2018-02-15T03:27:03.578Z,32.70
2018-02-15T03:29:31.025Z,30.13
2018-02-15T03:31:58.491Z,33.33
2018-02-15T03:34:25.974Z,32.20
2018-02-15T03:36:53.411Z,32.40
2018-02-15T03:39:20.839Z,35.57
2018-02-15T03:41:48.902Z,31.00
2018-02-15T03:44:17.123Z,34.00
2018-02-15T03:46:44.607Z,31.53
2018-02-15T03:49:12.087Z,37.37
2018-02-15T03:51:39.514Z,32.83
2018-02-15T03:54:06.955Z,30.60
2018-02-15T03:56:34.430Z,36.27
2018-02-15T03:59:01.858Z,32.20
2018-02-15T04:01:29.286Z,33.73
2018-02-15T04:03:56.721Z,30.23
2018-02-15T04:06:24.258Z,39.67
2018-02-15T04:08:51.691Z,36.03
2018-02-15T04:11:19.771Z,33.27
2018-02-15T04:13:47.210Z,33.80
2018-02-15T04:16:14.638Z,33.67
2018-02-15T04:18:42.070Z,34.00
2018-02-15T04:21:09.499Z,33.53
2018-02-15T04:23:36.930Z,33.87
2018-02-15T04:26:04.413Z,32.07
2018-02-15T04:28:31.904Z,35.10
2018-02-15T04:30:59.411Z,31.40
2018-02-15T04:33:26.858Z,34.60
2018-02-15T04:35:54.307Z,35.67
2018-02-15T04:38:22.547Z,38.70
2018-02-15T04:40:49.974Z,39.00
2018-02-15T04:43:17.415Z,35.77
2018-02-15T04:45:44.884Z,37.40
2018-02-15T04:48:12.335Z,37.90
2018-02-15T04:50:40.559Z,33.50
2018-02-15T04:53:07.995Z,29.10
2018-02-15T04:55:35.527Z,36.40
2018-02-15T04:58:02.970Z,34.67
2018-02-15T05:00:31.207Z,38.43
2018-02-15T05:02:58.636Z,30.77
2018-02-15T05:05:26.079Z,30.17
2018-02-15T05:07:53.507Z,44.93
2018-02-15T05:10:20.934Z,36.53
2018-02-15T05:12:48.383Z,34.63
2018-02-15T05:15:16.606Z,34.13
2018-02-15T05:17:44.087Z,34.40
2018-02-15T05:20:11.510Z,32.27
2018-02-15T05:22:38.963Z,36.70
2018-02-15T05:25:06.431Z,32.47
2018-02-15T05:27:33.862Z,35.10
2018-02-15T05:30:01.294Z,31.40
2018-02-15T05:32:28.774Z,37.27
2018-02-15T05:34:56.256Z,31.47
2018-02-15T05:37:23.739Z,27.97
2018-02-15T05:39:51.175Z,31.60
2018-02-15T05:42:19.171Z,34.77
2018-02-15T05:44:47.386Z,32.93
2018-02-15T05:47:15.584Z,39.23
2018-02-15T05:49:43.805Z,44.10
2018-02-15T05:52:11.238Z,38.80
2018-02-15T05:54:38.767Z,34.10
2018-02-15T05:57:06.250Z,33.53
2018-02-15T05:59:33.730Z,31.60
2018-02-15T06:02:01.154Z,35.10
2018-02-15T06:04:28.590Z,32.73
2018-02-15T06:06:56.056Z,32.03
2018-02-15T06:09:24.271Z,34.87
2018-02-15T06:11:51.730Z,30.77
2018-02-15T06:14:19.959Z,36.13
2018-02-15T06:16:47.419Z,32.10
2018-02-15T06:19:15.643Z,31.93
2018-02-15T06:21:43.107Z,34.23
2018-02-15T06:24:10.626Z,36.17
2018-02-15T06:26:38.099Z,37.07
2018-02-15T06:29:05.598Z,33.00
2018-02-15T06:31:33.048Z,35.93
2018-02-15T06:34:00.499Z,30.63
2018-02-15T06:36:28.719Z,33.13
2018-02-15T06:38:56.239Z,30.07
2018-02-15T06:41:23.724Z,32.53
2018-02-15T06:43:51.175Z,28.63
2018-02-15T06:46:19.160Z,31.80
2018-02-15T06:48:46.607Z,29.87
2018-02-15T06:51:14.064Z,28.47
2018-02-15T06:53:41.635Z,31.83
2018-02-15T06:56:09.087Z,34.47
2018-02-15T06:58:36.544Z,30.60
2018-02-15T07:01:04.823Z,32.90
2018-02-15T07:03:32.283Z,37.63
2018-02-15T07:05:59.759Z,35.60
2018-02-15T07:08:27.231Z,33.00
2018-02-15T07:10:54.691Z,28.07
2018-02-15T07:13:22.144Z,33.63
2018-02-15T07:15:50.403Z,31.40
2018-02-15T07:18:18.093Z,39.10
2018-02-15T07:20:45.547Z,29.07
2018-02-15T07:23:13.000Z,35.47
2018-02-15T07:25:41.252Z,35.50
2018-02-15T07:28:08.711Z,31.87
2018-02-15T07:30:36.161Z,28.07
2018-02-15T07:33:04.383Z,33.63
2018-02-15T07:35:31.897Z,32.83
2018-02-15T07:37:59.351Z,31.23
2018-02-15T07:40:26.864Z,33.53
2018-02-15T07:42:54.320Z,36.13
2018-02-15T07:45:21.784Z,37.87
2018-02-15T07:47:49.947Z,35.83
2018-02-15T07:50:17.403Z,32.77
2018-02-15T07:52:44.863Z,31.30
2018-02-15T07:55:12.316Z,30.23
2018-02-15T07:57:40.531Z,31.23
2018-02-15T08:00:08.044Z,33.50
2018-02-15T08:02:35.519Z,35.10
2018-02-15T08:05:02.995Z,31.97
2018-02-15T08:07:30.451Z,24.47
2018-02-15T08:09:57.967Z,25.33
2018-02-15T08:12:25.451Z,25.87
2018-02-15T08:14:52.936Z,19.50
2018-02-15T08:17:20.395Z,19.10
2018-02-15T08:19:48.074Z,19.93
2018-02-15T08:22:15.529Z,18.90
2018-02-15T08:24:43.779Z,21.17
2018-02-15T08:27:11.237Z,21.00
2018-02-15T08:29:38.715Z,18.57
2018-02-15T08:32:06.223Z,19.17
2018-02-15T08:34:33.707Z,21.50
2018-02-15T08:37:01.163Z,19.73
2018-02-15T08:39:28.611Z,19.67
2018-02-15T08:41:56.835Z,21.07
2018-02-15T08:44:24.292Z,19.50
2018-02-15T08:46:52.523Z,21.97
2018-02-15T08:49:19.992Z,22.13
2018-02-15T08:51:47.439Z,21.10
2018-02-15T08:54:14.896Z,17.00
2018-02-15T08:56:42.367Z,16.10
2018-02-15T08:59:09.835Z,17.53
2018-02-15T09:01:37.288Z,20.27
2018-02-15T09:04:05.523Z,19.10
2018-02-15T09:06:33.011Z,18.90
2018-02-15T09:09:00.502Z,20.83
2018-02-15T09:11:27.979Z,21.53
2018-02-15T09:13:55.428Z,23.20
2018-02-15T09:16:22.884Z,19.03
2018-02-15T09:18:51.099Z,17.07
2018-02-15T09:21:18.740Z,17.60
2018-02-15T09:23:46.307Z,18.47
2018-02-15T09:26:13.783Z,15.50
2018-02-15T09:28:41.275Z,21.77
2018-02-15T09:31:08.747Z,13.70
2018-02-15T09:33:36.202Z,13.90
2018-02-15T09:36:03.660Z,18.07
2018-02-15T09:38:31.871Z,17.10
2018-02-15T09:40:59.396Z,18.13
2018-02-15T09:43:26.875Z,17.57
2018-02-15T09:45:54.323Z,14.77
2018-02-15T09:48:21.839Z,17.80
2018-02-15T09:50:50.040Z,16.27
2018-02-15T09:53:17.504Z,17.40
2018-02-15T09:55:44.995Z,21.10
2018-02-15T09:58:12.452Z,17.03
2018-02-15T10:00:39.968Z,24.97
2018-02-15T10:03:07.426Z,17.33
2018-02-15T10:05:34.927Z,22.13
2018-02-15T10:08:02.399Z,18.47
2018-02-15T10:10:29.855Z,15.93
2018-02-15T10:12:57.311Z,22.00
2018-02-15T10:15:25.571Z,23.53
2018-02-15T10:17:53.055Z,17.97
2018-02-15T10:20:20.508Z,15.83
2018-02-15T10:22:48.057Z,18.67
2018-02-15T10:25:15.496Z,20.03
2018-02-15T10:27:42.943Z,17.10
2018-02-15T10:30:10.397Z,14.00
2018-02-15T10:32:38.655Z,17.30
2018-02-15T10:35:06.111Z,19.40
2018-02-15T10:37:33.572Z,19.23
2018-02-15T10:40:01.817Z,16.60
2018-02-15T10:42:29.300Z,24.93
2018-02-15T10:44:56.759Z,17.53
2018-02-15T10:47:24.212Z,21.57
2018-02-15T10:49:52.463Z,16.03
2018-02-15T10:52:20.467Z,16.80
2018-02-15T10:54:48.274Z,14.93
2018-02-15T10:57:15.722Z,18.70
2018-02-15T10:59:43.179Z,22.80
2018-02-15T11:02:16.248Z,16.13
2018-02-15T11:04:49.391Z,16.73
2018-02-15T11:07:17.612Z,13.67
2018-02-15T11:09:45.067Z,17.30
2018-02-15T11:12:13.287Z,17.07
2018-02-15T11:14:40.759Z,18.10
2018-02-15T11:17:08.274Z,17.93
2018-02-15T11:19:35.756Z,17.60
2018-02-15T11:22:03.240Z,14.10
2018-02-15T11:24:30.688Z,14.87
2018-02-15T11:26:58.139Z,12.80
2018-02-15T11:29:25.587Z,13.10
2018-02-15T11:31:53.067Z,15.77
2018-02-15T11:34:20.531Z,13.80
2018-02-15T11:36:48.080Z,11.97
2018-02-15T11:39:16.296Z,15.90
2018-02-15T11:41:43.804Z,11.77
2018-02-15T11:44:11.252Z,12.17
2018-02-15T11:46:38.764Z,14.03
2018-02-15T11:49:06.252Z,14.87
2018-02-15T11:51:33.699Z,13.70
2018-02-15T11:54:01.216Z,14.73
2018-02-15T11:56:28.736Z,14.70
2018-02-15T11:58:56.164Z,13.37
2018-02-15T12:01:23.615Z,15.93
2018-02-15T12:03:51.863Z,13.90
2018-02-15T12:06:20.168Z,16.83
2018-02-15T12:08:47.644Z,10.70
2018-02-15T12:11:15.096Z,14.63
2018-02-15T12:13:42.604Z,12.67
2018-02-15T12:16:10.078Z,15.63
2018-02-15T12:18:37.571Z,14.67
2018-02-15T12:21:05.051Z,20.73
2018-02-15T12:23:32.535Z,13.53
2018-02-15T12:25:59.984Z,14.23
2018-02-15T12:28:27.431Z,18.27
2018-02-15T12:30:54.883Z,16.60
2018-02-15T12:33:22.340Z,13.33
2018-02-15T12:35:50.332Z,15.17
2018-02-15T12:38:18.037Z,13.60
2018-02-15T12:40:45.549Z,17.67
2018-02-15T12:43:12.997Z,15.50
2018-02-15T12:45:40.467Z,15.80
2018-02-15T12:48:07.959Z,16.93
2018-02-15T12:50:35.438Z,22.37
2018-02-15T12:53:02.900Z,16.77
2018-02-15T12:55:30.357Z,18.50
2018-02-15T12:57:58.579Z,16.27
2018-02-15T13:00:26.031Z,20.60
2018-02-15T13:02:54.284Z,18.73
2018-02-15T13:05:21.735Z,16.33
2018-02-15T13:07:49.859Z,16.67
2018-02-15T13:10:17.310Z,16.07
2018-02-15T13:12:56.767Z,18.90
2018-02-15T13:15:36.120Z,17.57
2018-02-15T13:18:04.371Z,19.50
2018-02-15T13:20:31.850Z,20.10
2018-02-15T13:22:59.307Z,20.53
2018-02-15T13:25:26.768Z,20.23
2018-02-15T13:28:06.791Z,17.47
2018-02-15T13:30:34.271Z,20.70
2018-02-15T13:33:01.727Z,21.53
2018-02-15T13:35:29.179Z,20.00
2018-02-15T13:37:57.419Z,18.63
2018-02-15T13:40:24.876Z,21.70
2018-02-15T13:42:52.331Z,17.87
2018-02-15T13:45:21.312Z,19.57
2018-02-15T13:47:49.191Z,20.13
2018-02-15T13:50:16.684Z,19.37
2018-02-15T13:52:44.163Z,20.53
2018-02-15T13:55:11.619Z,23.20
2018-02-15T13:57:39.128Z,19.40
2018-02-15T14:00:06.607Z,17.40
2018-02-15T14:02:34.063Z,16.30
2018-02-15T14:05:01.571Z,18.97
2018-02-15T14:07:29.975Z,25.13
2018-02-15T14:09:57.439Z,19.77
2018-02-15T14:12:24.899Z,20.87
2018-02-15T14:14:52.372Z,19.53
2018-02-15T14:17:20.592Z,20.27
2018-02-15T14:19:48.158Z,19.90
2018-02-15T14:22:16.384Z,23.33
2018-02-15T14:24:43.864Z,23.07
2018-02-15T14:27:11.367Z,20.67
2018-02-15T14:29:38.834Z,24.13
2018-02-15T14:32:06.338Z,23.23
2018-02-15T14:34:33.916Z,21.40
2018-02-15T14:37:01.368Z,20.60
2018-02-15T14:39:28.819Z,22.50
2018-02-15T14:41:57.077Z,25.20
2018-02-15T14:44:24.533Z,26.93
2018-02-15T14:46:52.039Z,26.00
2018-02-15T14:49:20.032Z,26.40
2018-02-15T14:51:47.491Z,22.13
2018-02-15T14:54:14.955Z,27.00
2018-02-15T14:56:42.472Z,27.57
2018-02-15T14:59:09.930Z,29.67
2018-02-15T15:01:37.439Z,25.70
2018-02-15T15:04:04.904Z,24.00
2018-02-15T15:06:32.403Z,24.97
2018-02-15T15:08:59.887Z,24.70
2018-02-15T15:11:27.378Z,24.00
2018-02-15T15:13:54.951Z,23.20
2018-02-15T15:16:22.407Z,20.37
2018-02-15T15:18:50.069Z,19.90
2018-02-15T15:21:18.907Z,18.80
2018-02-15T15:23:46.407Z,20.10
2018-02-15T15:26:13.867Z,20.70
2018-02-15T15:28:41.320Z,20.23
2018-02-15T15:31:09.567Z,20.17
2018-02-15T15:33:37.027Z,17.13
2018-02-15T15:36:04.505Z,18.27
2018-02-15T15:38:32.016Z,18.40
2018-02-15T15:40:59.472Z,17.47
2018-02-15T15:43:26.922Z,15.30
2018-02-15T15:45:55.156Z,18.57
2018-02-15T15:48:22.626Z,17.03
2018-02-15T15:50:50.072Z,18.00
2018-02-15T15:53:17.619Z,14.47
2018-02-15T15:55:45.092Z,14.47
2018-02-15T15:58:12.583Z,15.23
2018-02-15T16:00:40.062Z,12.37
2018-02-15T16:03:07.520Z,16.93
2018-02-15T16:05:34.983Z,13.27
2018-02-15T16:08:03.203Z,13.77
2018-02-15T16:10:30.710Z,14.53
2018-02-15T16:12:58.168Z,12.47
2018-02-15T16:15:25.672Z,14.90
2018-02-15T16:17:53.127Z,12.40
2018-02-15T16:20:20.603Z,13.57
2018-02-15T16:22:48.083Z,12.70
2018-02-15T16:25:15.523Z,11.60
2018-02-15T16:27:42.980Z,10.87
2018-02-15T16:30:10.460Z,11.83
2018-02-15T16:32:37.911Z,11.20
2018-02-15T16:35:05.419Z,11.40
2018-02-15T16:37:32.899Z,9.20
2018-02-15T16:40:00.384Z,9.30
2018-02-15T16:42:27.833Z,12.40
2018-02-15T16:44:55.280Z,9.20
2018-02-15T16:47:22.747Z,9.67
2018-02-15T16:49:50.191Z,8.80
2018-02-15T16:52:17.635Z,11.63
2018-02-15T16:54:45.855Z,8.07
2018-02-15T16:57:13.303Z,8.80
2018-02-15T16:59:40.755Z,7.63
2018-02-15T17:02:08.199Z,5.60
2018-02-15T17:04:35.703Z,6.17
2018-02-15T17:07:03.191Z,6.00
2018-02-15T17:09:30.680Z,7.00
2018-02-15T17:11:58.155Z,5.60
2018-02-15T17:14:25.603Z,7.30
2018-02-15T17:16:53.155Z,5.17
2018-02-15T17:19:20.603Z,7.17
2018-02-15T17:21:48.087Z,9.57
2018-02-15T17:24:15.559Z,5.90
2018-02-15T17:26:43.009Z,5.90
2018-02-15T17:29:10.461Z,5.67
2018-02-15T17:31:37.911Z,5.47
2018-02-15T17:34:05.389Z,4.80
2018-02-15T17:36:32.836Z,4.87
2018-02-15T17:39:00.283Z,5.43
2018-02-15T17:41:27.873Z,4.60
2018-02-15T17:43:55.289Z,4.90
2018-02-15T17:46:22.736Z,6.00
2018-02-15T17:48:50.950Z,7.70
2018-02-15T17:51:18.923Z,5.80
2018-02-15T17:53:46.376Z,8.20
2018-02-15T17:56:13.823Z,6.67
2018-02-15T17:58:41.327Z,7.53
2018-02-15T18:01:08.771Z,8.13
2018-02-15T18:03:36.291Z,5.27
2018-02-15T18:06:03.779Z,6.50
2018-02-15T18:08:31.360Z,6.83
2018-02-15T18:10:58.842Z,6.40
2018-02-15T18:13:26.327Z,5.70
2018-02-15T18:15:53.771Z,5.73
2018-02-15T18:18:21.292Z,7.27
2018-02-15T18:20:49.168Z,7.30
2018-02-15T18:23:16.619Z,6.13
2018-02-15T18:25:44.135Z,9.30
2018-02-15T18:28:11.584Z,6.83
2018-02-15T18:30:39.095Z,7.93
2018-02-15T18:33:06.551Z,8.63
2018-02-15T18:35:34.004Z,10.30
2018-02-15T18:38:01.552Z,9.80
2018-02-15T18:40:28.995Z,8.03
2018-02-15T18:42:56.447Z,11.20
2018-02-15T18:45:23.908Z,12.93
2018-02-15T18:47:51.367Z,8.77
2018-02-15T18:50:19.348Z,17.07
2018-02-15T18:52:46.850Z,12.80
2018-02-15T18:55:14.333Z,18.02
2018-02-15T18:57:41.784Z,14.83
2018-02-15T19:00:09.235Z,13.23
2018-02-15T19:02:37.487Z,14.90
2018-02-15T19:05:04.952Z,17.10
2018-02-15T19:07:32.452Z,14.73
2018-02-15T19:09:59.927Z,19.90
2018-02-15T19:12:27.415Z,20.20
2018-02-15T19:14:54.899Z,16.40
2018-02-15T19:17:22.387Z,18.83
2018-02-15T19:19:50.124Z,25.35
2018-02-15T19:22:17.586Z,17.60
2018-02-15T19:24:45.043Z,24.63
2018-02-15T19:27:12.520Z,15.30
2018-02-15T19:29:39.991Z,15.60
2018-02-15T19:32:07.439Z,16.20
2018-02-15T19:34:34.896Z,11.50
2018-02-15T19:37:03.114Z,10.53
2018-02-15T19:39:31.351Z,8.70
2018-02-15T19:41:58.807Z,6.27
2018-02-15T19:44:26.264Z,28.40
2018-02-15T19:46:54.479Z,18.40
2018-02-15T19:49:21.940Z,15.67
2018-02-15T19:51:50.160Z,13.57
2018-02-15T19:54:17.611Z,15.10
2018-02-15T19:56:45.155Z,13.00
2018-02-15T19:59:12.623Z,11.07
2018-02-15T20:01:40.124Z,10.57
2018-02-15T20:04:07.576Z,10.17
2018-02-15T20:06:35.093Z,13.07
2018-02-15T20:09:02.583Z,10.00
2018-02-15T20:11:30.040Z,9.97
2018-02-15T20:13:57.535Z,8.03
2018-02-15T20:16:25.007Z,7.90
2018-02-15T20:18:52.495Z,7.30
2018-02-15T20:21:20.530Z,6.20
2018-02-15T20:23:49.339Z,8.57
2018-02-15T20:26:23.232Z,7.13
2018-02-15T20:28:50.703Z,8.77
2018-02-15T20:31:18.252Z,10.37
2018-02-15T20:33:46.455Z,8.50
2018-02-15T20:36:13.917Z,10.50
2018-02-15T20:38:47.103Z,8.27
2018-02-15T20:41:14.547Z,9.87
2018-02-15T20:43:42.052Z,11.23
2018-02-15T20:46:09.552Z,10.00
2018-02-15T20:48:37.021Z,10.20
2018-02-15T20:51:10.131Z,15.10
2018-02-15T20:53:43.264Z,19.43
2018-02-15T20:56:10.736Z,14.80
2018-02-15T20:58:38.183Z,10.63
2018-02-15T21:01:05.631Z,7.20
2018-02-15T21:03:33.847Z,11.63
2018-02-15T21:06:01.300Z,10.23
2018-02-15T21:08:28.771Z,10.63
2018-02-15T21:10:56.234Z,9.57
2018-02-15T21:13:23.672Z,11.37
2018-02-15T21:15:51.144Z,12.10
2018-02-15T21:18:20.036Z,16.00
2018-02-15T21:20:47.483Z,15.47
2018-02-15T21:23:14.935Z,11.10
2018-02-15T21:25:42.387Z,12.57
2018-02-15T21:28:09.931Z,11.95
2018-02-15T21:30:37.379Z,18.00
2018-02-15T21:33:04.830Z,16.93
2018-02-15T21:35:32.288Z,12.00
2018-02-15T21:37:59.764Z,15.00
2018-02-15T21:40:27.239Z,20.30
2018-02-15T21:42:54.691Z,14.97
2018-02-15T21:45:22.156Z,17.90
2018-02-15T21:47:50.388Z,12.73
2018-02-15T21:50:18.191Z,10.97
2018-02-15T21:52:45.668Z,11.50
2018-02-15T21:55:13.120Z,10.43
2018-02-15T21:57:40.635Z,26.47
2018-02-15T22:00:08.103Z,20.10
2018-02-15T22:02:35.555Z,12.73
2018-02-15T22:05:03.012Z,7.90
2018-02-15T22:07:30.485Z,14.20
2018-02-15T22:09:58.044Z,11.73
2018-02-15T22:12:25.524Z,6.30
2018-02-15T22:14:52.975Z,8.37
2018-02-15T22:17:20.490Z,7.47
2018-02-15T22:19:48.280Z,11.50
2018-02-15T22:22:15.702Z,16.93
2018-02-15T22:24:43.127Z,9.53
2018-02-15T22:27:10.554Z,14.07
2018-02-15T22:29:38.752Z,15.17
2018-02-15T22:32:06.950Z,24.50
2018-02-15T22:34:35.183Z,29.37
2018-02-15T22:37:02.658Z,22.30
2018-02-15T22:39:30.090Z,27.10
2018-02-15T22:41:57.618Z,27.47
2018-02-15T22:44:25.050Z,25.30
2018-02-15T22:46:52.592Z,22.53
2018-02-15T22:49:20.331Z,17.90
2018-02-15T22:51:48.537Z,13.07
2018-02-15T22:54:16.055Z,19.03
2018-02-15T22:56:43.531Z,20.90
2018-02-15T22:59:11.018Z,16.60
2018-02-15T23:01:38.438Z,16.30
2018-02-15T23:04:05.962Z,16.03
2018-02-15T23:06:33.466Z,16.60
2018-02-15T23:09:00.950Z,22.00
2018-02-15T23:11:28.430Z,16.97
2018-02-15T23:13:55.883Z,22.53
2018-02-15T23:16:23.391Z,17.83
2018-02-15T23:18:50.876Z,14.27
2018-02-15T23:21:19.075Z,11.77
2018-02-15T23:23:46.495Z,7.33
2018-02-15T23:26:13.922Z,9.30
2018-02-15T23:28:41.406Z,9.40
2018-02-15T23:31:08.886Z,15.03
2018-02-15T23:33:36.319Z,11.27
2018-02-15T23:36:03.750Z,10.40
2018-02-15T23:38:31.238Z,7.10
2018-02-15T23:40:58.718Z,6.17
2018-02-15T23:43:26.198Z,10.57
2018-02-15T23:45:53.678Z,7.67
2018-02-15T23:48:21.105Z,8.63
2018-02-15T23:50:48.933Z,10.33
2018-02-15T23:53:17.110Z,10.50
2018-02-15T23:55:45.303Z,6.90
2018-02-15T23:58:12.822Z,10.00
